createdAt,value
2019-05-13T00:02:05.028Z,73.11
2019-05-13T00:04:33.723Z,72.70
2019-05-13T00:07:00.004Z,72.26
2019-05-13T00:09:26.094Z,71.87
2019-05-13T00:11:54.044Z,71.57
2019-05-13T00:14:20.620Z,71.24
2019-05-13T00:16:46.743Z,71.03
2019-05-13T00:19:14.274Z,70.74
2019-05-13T00:21:40.558Z,70.87
2019-05-13T00:24:06.654Z,70.47
2019-05-13T00:26:34.947Z,70.92
2019-05-13T00:29:04.112Z,70.80
2019-05-13T00:31:30.416Z,71.21
2019-05-13T00:33:56.892Z,71.57
2019-05-13T00:36:24.295Z,71.82
2019-05-13T00:38:50.395Z,72.06
2019-05-13T00:41:16.444Z,72.24
2019-05-13T00:43:44.457Z,73.46
2019-05-13T00:46:11.422Z,73.01
2019-05-13T00:48:37.456Z,73.78
2019-05-13T00:51:03.906Z,74.14
2019-05-13T00:53:30.917Z,74.20
2019-05-13T00:55:57.106Z,74.72
2019-05-13T00:58:24.425Z,74.58
2019-05-13T01:00:50.501Z,74.55
2019-05-13T01:03:16.750Z,74.35
2019-05-13T01:05:44.445Z,74.27
2019-05-13T01:08:10.779Z,74.17
2019-05-13T01:10:37.402Z,73.93
2019-05-13T01:13:04.745Z,73.85
2019-05-13T01:15:34.011Z,73.93
2019-05-13T01:17:59.473Z,74.46
2019-05-13T01:20:25.542Z,74.69
2019-05-13T01:22:53.976Z,74.63
2019-05-13T01:25:19.536Z,74.79
2019-05-13T01:27:45.813Z,74.65
2019-05-13T01:30:13.356Z,74.27
2019-05-13T01:32:39.789Z,74.55
2019-05-13T01:35:06.004Z,74.11
2019-05-13T01:37:39.997Z,74.19
2019-05-13T01:39:59.947Z,74.08
2019-05-13T01:42:26.250Z,74.27
2019-05-13T01:44:53.865Z,74.45
2019-05-13T01:47:20.101Z,74.52
2019-05-13T01:49:46.091Z,74.36
2019-05-13T01:52:13.680Z,74.88
2019-05-13T01:54:39.976Z,75.07
2019-05-13T01:57:06.254Z,75.11
2019-05-13T01:59:34.598Z,75.62
2019-05-13T02:02:03.258Z,75.95
2019-05-13T02:04:29.114Z,76.36
2019-05-13T02:06:55.116Z,76.71
2019-05-13T02:09:21.187Z,76.97
2019-05-13T02:11:47.521Z,76.68
2019-05-13T02:14:13.553Z,76.26
2019-05-13T02:16:39.579Z,76.33
2019-05-13T02:19:05.729Z,76.38
2019-05-13T02:21:33.661Z,77.19
2019-05-13T02:23:59.732Z,78.00
2019-05-13T02:26:25.836Z,79.35
2019-05-13T02:28:53.989Z,80.17
2019-05-13T02:31:32.458Z,80.41
2019-05-13T02:33:47.663Z,81.22
2019-05-13T02:36:13.910Z,81.73
2019-05-13T02:38:42.695Z,81.99
2019-05-13T02:41:08.012Z,82.52
2019-05-13T02:43:34.719Z,82.54
2019-05-13T02:46:04.126Z,82.35
2019-05-13T02:48:28.773Z,83.00
2019-05-13T02:50:55.400Z,83.41
2019-05-13T02:53:23.768Z,83.70
2019-05-13T02:55:52.230Z,83.80
2019-05-13T02:58:17.440Z,83.83
2019-05-13T03:00:44.882Z,83.69
2019-05-13T03:03:12.900Z,83.87
2019-05-13T03:05:42.880Z,84.08
2019-05-13T03:08:08.451Z,83.63
2019-05-13T03:10:36.637Z,83.55
2019-05-13T03:13:03.934Z,83.39
2019-05-13T03:15:32.705Z,83.29
2019-05-13T03:18:05.086Z,83.19
2019-05-13T03:20:33.380Z,83.00
2019-05-13T03:23:03.032Z,83.00
2019-05-13T03:25:28.068Z,82.34
2019-05-13T03:27:54.491Z,82.13
2019-05-13T03:30:25.462Z,82.22
2019-05-13T03:32:55.332Z,81.94
2019-05-13T03:35:17.196Z,82.05
2019-05-13T03:37:43.457Z,82.07
2019-05-13T03:40:13.112Z,82.51
2019-05-13T03:42:42.452Z,82.82
2019-05-13T03:45:08.783Z,83.15
2019-05-13T03:47:35.116Z,81.31
2019-05-13T03:50:03.541Z,81.51
2019-05-13T03:52:33.235Z,81.64
2019-05-13T03:54:57.958Z,81.96
2019-05-13T03:57:24.089Z,82.41
2019-05-13T03:59:52.623Z,82.45
2019-05-13T04:02:22.367Z,82.38
2019-05-13T04:04:46.615Z,82.36
2019-05-13T04:07:13.077Z,81.97
2019-05-13T04:09:42.145Z,82.15
2019-05-13T04:12:07.522Z,82.30
2019-05-13T04:14:35.521Z,82.20
2019-05-13T04:17:02.962Z,82.04
2019-05-13T04:19:33.614Z,81.43
2019-05-13T04:21:58.521Z,81.64
2019-05-13T04:24:24.511Z,81.45
2019-05-13T04:26:53.473Z,81.09
2019-05-13T04:29:23.454Z,80.53
2019-05-13T04:31:49.020Z,80.45
2019-05-13T04:34:15.184Z,80.51
2019-05-13T04:36:43.002Z,79.92
2019-05-13T04:39:12.695Z,79.72
2019-05-13T04:41:37.144Z,79.54
2019-05-13T04:44:05.003Z,79.27
2019-05-13T04:46:32.784Z,78.79
2019-05-13T04:49:02.005Z,78.57
2019-05-13T04:51:27.165Z,78.20
2019-05-13T04:53:57.098Z,77.93
2019-05-13T04:56:22.496Z,77.93
2019-05-13T04:58:52.459Z,77.91
2019-05-13T05:01:32.465Z,79.06
2019-05-13T05:04:22.183Z,77.59
2019-05-13T05:06:54.747Z,76.97
2019-05-13T05:10:13.051Z,76.94
2019-05-13T05:12:51.705Z,77.05
2019-05-13T05:15:38.607Z,77.00
2019-05-13T05:18:14.281Z,76.96
2019-05-13T05:21:01.481Z,77.28
2019-05-13T05:23:53.184Z,77.32
2019-05-13T05:26:42.005Z,76.84
2019-05-13T05:29:12.029Z,77.35
2019-05-13T05:32:01.963Z,76.97
2019-05-13T05:34:51.790Z,76.87
2019-05-13T05:37:24.391Z,77.07
2019-05-13T05:39:53.677Z,77.14
2019-05-13T05:42:22.617Z,76.81
2019-05-13T05:44:51.842Z,76.62
2019-05-13T05:47:21.338Z,76.10
2019-05-13T05:49:51.620Z,76.22
2019-05-13T05:52:21.091Z,75.91
2019-05-13T05:54:51.614Z,75.62
2019-05-13T05:57:18.456Z,75.13
2019-05-13T05:59:44.711Z,75.34
2019-05-13T06:02:12.118Z,75.07
2019-05-13T06:04:38.482Z,74.75
2019-05-13T06:07:04.531Z,74.92
2019-05-13T06:09:32.261Z,74.70
2019-05-13T06:11:58.455Z,74.63
2019-05-13T06:14:24.685Z,74.70
2019-05-13T06:16:51.897Z,73.93
2019-05-13T06:19:19.506Z,73.15
2019-05-13T06:21:46.911Z,73.05
2019-05-13T06:24:12.999Z,73.02
2019-05-13T06:26:41.777Z,73.78
2019-05-13T06:29:07.698Z,72.93
2019-05-13T06:31:33.716Z,73.07
2019-05-13T06:34:01.911Z,72.17
2019-05-13T06:36:27.813Z,71.88
2019-05-13T06:38:53.973Z,72.05
2019-05-13T06:41:21.952Z,70.95
2019-05-13T06:43:48.123Z,70.59
2019-05-13T06:46:14.094Z,70.47
2019-05-13T06:48:41.445Z,70.82
2019-05-13T06:51:07.675Z,70.72
2019-05-13T06:53:33.706Z,70.92
2019-05-13T06:56:01.517Z,71.18
2019-05-13T06:58:27.765Z,69.77
2019-05-13T07:00:57.641Z,69.33
2019-05-13T07:03:22.175Z,68.64
2019-05-13T07:05:48.266Z,68.06
2019-05-13T07:08:14.309Z,68.28
2019-05-13T07:10:41.404Z,67.90
2019-05-13T07:13:07.765Z,67.93
2019-05-13T07:15:33.784Z,68.02
2019-05-13T07:18:02.132Z,67.58
2019-05-13T07:20:27.710Z,65.32
2019-05-13T07:22:53.795Z,64.45
2019-05-13T07:25:22.221Z,64.97
2019-05-13T07:27:47.731Z,64.78
2019-05-13T07:30:17.879Z,64.77
2019-05-13T07:32:44.098Z,64.30
2019-05-13T07:35:14.251Z,64.91
2019-05-13T07:37:42.229Z,64.18
2019-05-13T07:40:11.450Z,64.32
2019-05-13T07:42:36.658Z,63.27
2019-05-13T07:45:04.782Z,63.61
2019-05-13T07:47:41.485Z,62.46
2019-05-13T07:50:07.966Z,62.14
2019-05-13T07:52:34.080Z,60.75
2019-05-13T07:55:01.646Z,61.63
2019-05-13T07:57:27.894Z,60.62
2019-05-13T07:59:53.915Z,60.85
2019-05-13T08:02:21.772Z,61.94
2019-05-13T08:04:49.508Z,61.81
2019-05-13T08:07:15.778Z,61.48
2019-05-13T08:09:42.048Z,60.69
2019-05-13T08:12:10.944Z,61.52
2019-05-13T08:14:36.200Z,60.24
2019-05-13T08:17:02.873Z,59.79
2019-05-13T08:19:29.277Z,61.20
2019-05-13T08:21:55.725Z,63.45
2019-05-13T08:24:22.712Z,61.86
2019-05-13T08:26:50.659Z,61.56
2019-05-13T08:29:16.822Z,59.59
2019-05-13T08:31:42.859Z,59.85
2019-05-13T08:34:11.558Z,58.85
2019-05-13T08:36:39.409Z,59.77
2019-05-13T08:39:07.759Z,58.85
2019-05-13T08:41:33.872Z,58.97
2019-05-13T08:44:01.746Z,56.17
2019-05-13T08:46:28.027Z,55.81
2019-05-13T08:48:54.314Z,56.40
2019-05-13T08:51:22.053Z,55.69
2019-05-13T08:53:48.216Z,55.15
2019-05-13T08:56:14.288Z,55.92
2019-05-13T08:58:41.254Z,55.95
2019-05-13T09:01:07.466Z,54.61
2019-05-13T09:03:33.514Z,56.80
2019-05-13T09:06:02.516Z,55.05
2019-05-13T09:08:27.746Z,53.35
2019-05-13T09:10:56.830Z,53.51
2019-05-13T09:13:22.430Z,51.66
2019-05-13T09:15:48.684Z,51.02
2019-05-13T09:18:14.669Z,51.69
2019-05-13T09:20:41.589Z,52.70
2019-05-13T09:23:07.791Z,50.95
2019-05-13T09:25:33.836Z,49.19
2019-05-13T09:28:02.656Z,50.89
2019-05-13T09:30:27.710Z,52.00
2019-05-13T09:32:53.834Z,51.10
2019-05-13T09:35:22.045Z,50.19
2019-05-13T09:37:47.890Z,52.57
2019-05-13T09:40:13.993Z,53.30
2019-05-13T09:42:49.132Z,52.12
2019-05-13T09:45:08.187Z,51.25
2019-05-13T09:47:34.177Z,52.13
2019-05-13T09:50:00.148Z,51.33
2019-05-13T09:52:26.192Z,51.00
2019-05-13T09:54:52.544Z,51.32
2019-05-13T09:57:21.887Z,51.48
2019-05-13T09:59:46.774Z,51.19
2019-05-13T10:02:12.849Z,50.12
2019-05-13T10:04:43.161Z,48.86
2019-05-13T10:07:07.136Z,49.30
2019-05-13T10:09:33.400Z,48.45
2019-05-13T10:12:02.693Z,47.29
2019-05-13T10:14:27.430Z,48.23
2019-05-13T10:16:53.435Z,47.77
2019-05-13T10:19:21.526Z,47.34
2019-05-13T10:21:47.379Z,46.71
2019-05-13T10:24:13.413Z,46.95
2019-05-13T10:26:42.613Z,48.43
2019-05-13T10:29:07.892Z,48.63
2019-05-13T10:31:34.212Z,48.44
2019-05-13T10:34:02.403Z,47.82
2019-05-13T10:36:28.327Z,48.58
2019-05-13T10:38:54.518Z,49.13
2019-05-13T10:41:22.284Z,47.64
2019-05-13T10:43:48.467Z,47.04
2019-05-13T10:46:14.555Z,45.49
2019-05-13T10:48:41.688Z,46.46
2019-05-13T10:51:07.874Z,44.87
2019-05-13T10:53:34.019Z,44.24
2019-05-13T10:56:02.491Z,41.64
2019-05-13T10:58:28.133Z,41.27
2019-05-13T11:00:55.334Z,44.88
2019-05-13T11:03:22.981Z,44.11
2019-05-13T11:05:52.265Z,44.82
2019-05-13T11:08:17.484Z,44.99
2019-05-13T11:10:43.558Z,42.70
2019-05-13T11:13:10.789Z,45.24
2019-05-13T11:15:40.677Z,42.04
2019-05-13T11:18:05.925Z,40.55
2019-05-13T11:20:32.497Z,38.21
2019-05-13T11:22:58.561Z,37.21
2019-05-13T11:25:24.599Z,34.52
2019-05-13T11:27:52.454Z,40.44
2019-05-13T11:30:21.567Z,41.14
2019-05-13T11:32:47.281Z,43.12
2019-05-13T11:35:13.397Z,42.69
2019-05-13T11:37:40.011Z,42.24
2019-05-13T11:40:07.085Z,43.01
2019-05-13T11:42:33.473Z,44.95
2019-05-13T11:44:59.565Z,45.40
2019-05-13T11:47:25.666Z,47.03
2019-05-13T11:49:52.392Z,47.10
2019-05-13T11:52:18.566Z,46.25
2019-05-13T11:54:44.594Z,47.51
2019-05-13T11:57:12.521Z,45.92
2019-05-13T11:59:38.506Z,46.28
2019-05-13T12:02:05.439Z,45.75
2019-05-13T12:04:34.339Z,45.61
2019-05-13T12:06:59.353Z,47.48
2019-05-13T12:09:25.484Z,46.78
2019-05-13T12:11:51.581Z,45.99
2019-05-13T12:14:42.384Z,42.18
2019-05-13T12:16:45.713Z,38.61
2019-05-13T12:19:12.070Z,39.00
2019-05-13T12:21:43.334Z,37.61
2019-05-13T12:24:10.430Z,37.22
2019-05-13T12:26:34.132Z,37.71
2019-05-13T12:29:02.747Z,40.16
2019-05-13T12:31:27.989Z,35.42
2019-05-13T12:33:54.089Z,36.10
2019-05-13T12:36:23.651Z,35.62
2019-05-13T12:38:48.346Z,35.32
2019-05-13T12:41:14.477Z,34.70
2019-05-13T12:43:42.579Z,33.75
2019-05-13T12:46:08.488Z,35.39
2019-05-13T12:48:34.627Z,36.51
2019-05-13T12:51:02.972Z,38.18
2019-05-13T12:53:28.560Z,37.55
2019-05-13T12:55:57.379Z,39.38
2019-05-13T12:58:23.601Z,39.67
2019-05-13T13:00:52.922Z,39.57
2019-05-13T13:03:18.021Z,39.96
2019-05-13T13:05:44.089Z,38.74
2019-05-13T13:08:23.974Z,37.85
2019-05-13T13:10:38.299Z,39.10
2019-05-13T13:13:04.417Z,41.02
2019-05-13T13:15:38.222Z,37.55
2019-05-13T13:17:58.793Z,36.90
2019-05-13T13:20:24.757Z,36.45
2019-05-13T13:22:50.768Z,34.94
2019-05-13T13:25:17.297Z,36.07
2019-05-13T13:28:09.933Z,36.49
2019-05-13T13:30:12.071Z,36.74
2019-05-13T13:32:38.150Z,37.35
2019-05-13T13:35:04.540Z,37.83
2019-05-13T13:37:34.779Z,37.53
2019-05-13T13:39:58.858Z,38.21
2019-05-13T13:42:24.853Z,38.16
2019-05-13T13:44:53.721Z,37.85
2019-05-13T13:47:18.871Z,37.97
2019-05-13T13:49:45.044Z,39.26
2019-05-13T13:52:15.961Z,39.52
2019-05-13T13:54:43.803Z,39.26
2019-05-13T13:57:07.174Z,40.34
2019-05-13T13:59:35.976Z,41.14
2019-05-13T14:02:05.431Z,40.17
2019-05-13T14:04:29.926Z,40.06
2019-05-13T14:09:23.868Z,39.86
2019-05-13T14:11:51.565Z,39.34
2019-05-13T14:14:17.702Z,39.54
2019-05-13T14:16:46.641Z,39.94
2019-05-13T14:19:11.732Z,41.53
2019-05-13T14:21:37.723Z,41.66
2019-05-13T14:24:03.957Z,41.48
2019-05-13T14:26:32.426Z,40.54
2019-05-13T14:28:57.983Z,40.86
2019-05-13T14:31:24.014Z,40.22
2019-05-13T14:33:52.042Z,40.25
2019-05-13T14:36:17.996Z,39.19
2019-05-13T14:38:44.194Z,38.35
2019-05-13T14:41:12.320Z,39.69
2019-05-13T14:43:38.742Z,39.48
2019-05-13T14:46:04.856Z,39.79
2019-05-13T14:48:32.915Z,39.84
2019-05-13T14:50:59.814Z,40.28
2019-05-13T14:53:28.171Z,40.78
2019-05-13T14:55:54.301Z,41.27
2019-05-13T14:58:21.902Z,41.14
2019-05-13T15:01:07.045Z,41.09
2019-05-13T15:03:16.257Z,40.94
2019-05-13T15:05:43.052Z,40.91
2019-05-13T15:08:09.218Z,41.10
2019-05-13T15:10:35.537Z,40.97
2019-05-13T15:13:03.043Z,41.08
2019-05-13T15:15:31.714Z,41.35
2019-05-13T15:17:57.328Z,41.02
2019-05-13T15:20:23.540Z,42.35
2019-05-13T15:22:51.789Z,42.76
2019-05-13T15:25:18.235Z,43.36
2019-05-13T15:27:45.139Z,43.69
2019-05-13T15:30:18.352Z,43.82
2019-05-13T15:32:41.935Z,42.55
2019-05-13T15:35:10.080Z,41.84
2019-05-13T15:37:36.128Z,42.71
2019-05-13T15:40:04.246Z,43.30
2019-05-13T15:42:31.954Z,43.38
2019-05-13T15:44:58.424Z,42.40
2019-05-13T15:47:26.878Z,42.10
2019-05-13T15:49:52.776Z,42.91
2019-05-13T15:52:22.614Z,43.76
2019-05-13T15:54:49.175Z,43.60
2019-05-13T15:57:15.276Z,43.59
2019-05-13T15:59:41.558Z,43.65
2019-05-13T16:02:07.773Z,44.34
2019-05-13T16:04:48.787Z,44.13
2019-05-13T16:07:02.050Z,45.37
2019-05-13T16:09:31.252Z,45.79
2019-05-13T16:11:56.869Z,45.77
2019-05-13T16:14:22.989Z,45.54
2019-05-13T16:16:49.116Z,46.68
2019-05-13T16:19:15.145Z,47.13
2019-05-13T16:21:41.787Z,46.81
2019-05-13T16:24:07.913Z,46.90
2019-05-13T16:26:33.927Z,46.62
2019-05-13T16:29:02.105Z,46.55
2019-05-13T16:31:27.895Z,46.55
2019-05-13T16:33:54.081Z,47.10
2019-05-13T16:36:22.163Z,47.01
2019-05-13T16:38:48.379Z,47.73
2019-05-13T16:41:14.964Z,48.72
2019-05-13T16:43:42.677Z,48.88
2019-05-13T16:46:08.955Z,48.50
2019-05-13T16:48:35.053Z,49.40
2019-05-13T16:51:01.411Z,50.03
2019-05-13T16:53:27.451Z,50.31
2019-05-13T16:55:54.263Z,50.68
2019-05-13T16:58:24.702Z,50.90
2019-05-13T17:00:51.596Z,52.46
2019-05-13T17:03:16.969Z,52.32
2019-05-13T17:05:43.323Z,53.53
2019-05-13T17:08:09.426Z,54.50
2019-05-13T17:10:35.659Z,56.07
2019-05-13T17:13:02.979Z,56.56
2019-05-13T17:15:31.201Z,56.36
2019-05-13T17:18:09.241Z,56.73
2019-05-13T17:20:25.544Z,56.92
2019-05-13T17:22:51.548Z,57.08
2019-05-13T17:25:17.579Z,57.37
2019-05-13T17:27:43.614Z,57.31
2019-05-13T17:30:11.448Z,57.46
2019-05-13T17:32:37.921Z,57.60
2019-05-13T17:35:05.069Z,55.76
2019-05-13T17:37:31.675Z,56.11
2019-05-13T17:39:58.490Z,55.74
2019-05-13T17:42:24.639Z,56.06
2019-05-13T17:44:51.639Z,55.66
2019-05-13T17:47:17.854Z,56.37
2019-05-13T17:49:43.910Z,55.89
2019-05-13T17:52:11.521Z,56.25
2019-05-13T17:54:37.702Z,57.42
2019-05-13T17:57:03.731Z,57.51
2019-05-13T17:59:31.448Z,57.53
2019-05-13T18:01:58.101Z,57.72
2019-05-13T18:04:24.178Z,56.93
2019-05-13T18:06:52.287Z,56.05
2019-05-13T18:09:18.081Z,56.22
2019-05-13T18:11:44.333Z,55.98
2019-05-13T18:14:11.429Z,55.98
2019-05-13T18:16:37.755Z,56.57
2019-05-13T18:19:03.772Z,56.40
2019-05-13T18:21:31.634Z,54.76
2019-05-13T18:23:57.665Z,53.90
2019-05-13T18:26:23.698Z,54.86
2019-05-13T18:28:51.548Z,54.38
2019-05-13T18:31:17.656Z,54.15
2019-05-13T18:33:43.634Z,53.94
2019-05-13T18:36:11.848Z,54.50
2019-05-13T18:38:37.650Z,54.19
2019-05-13T18:41:03.794Z,53.89
2019-05-13T18:43:31.867Z,54.12
2019-05-13T18:45:57.930Z,54.60
2019-05-13T18:48:24.410Z,54.83
2019-05-13T18:50:52.399Z,54.38
2019-05-13T18:53:18.371Z,55.14
2019-05-13T18:55:44.329Z,55.12
2019-05-13T18:58:11.628Z,54.70
2019-05-13T19:00:37.783Z,55.42
2019-05-13T19:03:04.049Z,56.01
2019-05-13T19:05:31.717Z,57.05
2019-05-13T19:07:57.826Z,56.80
2019-05-13T19:10:23.859Z,56.89
2019-05-13T19:12:49.889Z,57.98
2019-05-13T19:15:16.189Z,58.33
2019-05-13T19:17:42.230Z,58.32
2019-05-13T19:20:08.303Z,58.50
2019-05-13T19:22:34.282Z,58.56
2019-05-13T19:25:01.094Z,59.95
2019-05-13T19:27:27.237Z,60.70
2019-05-13T19:29:53.225Z,60.78
2019-05-13T19:32:21.693Z,60.18
2019-05-13T19:34:47.396Z,60.30
2019-05-13T19:37:13.445Z,60.63
2019-05-13T19:39:39.553Z,60.05
2019-05-13T19:42:05.628Z,60.49
2019-05-13T19:44:31.715Z,61.24
2019-05-13T19:46:57.753Z,60.75
2019-05-13T19:49:32.145Z,60.81
2019-05-13T19:51:52.123Z,59.49
2019-05-13T19:54:18.344Z,58.75
2019-05-13T19:56:44.443Z,58.70
2019-05-13T19:59:12.434Z,59.86
2019-05-13T20:01:38.457Z,59.90
2019-05-13T20:04:04.771Z,59.53
2019-05-13T20:06:32.026Z,59.53
2019-05-13T20:08:58.167Z,59.52
2019-05-13T20:11:24.286Z,59.27
2019-05-13T20:13:52.104Z,60.21
2019-05-13T20:16:18.281Z,60.62
2019-05-13T20:18:44.483Z,62.26
2019-05-13T20:21:13.381Z,62.20
2019-05-13T20:23:38.697Z,60.84
2019-05-13T20:26:04.709Z,60.89
2019-05-13T20:28:31.703Z,60.75
2019-05-13T20:30:58.056Z,60.53
2019-05-13T20:33:24.231Z,60.17
2019-05-13T20:35:50.376Z,60.66
2019-05-13T20:38:16.364Z,60.54
2019-05-13T20:40:42.397Z,60.53
2019-05-13T20:43:08.611Z,60.72
2019-05-13T20:45:34.841Z,61.68
2019-05-13T20:48:01.460Z,62.62
2019-05-13T20:50:28.289Z,62.41
2019-05-13T20:52:54.516Z,62.61
2019-05-13T20:55:21.994Z,63.18
2019-05-13T20:57:48.357Z,63.73
2019-05-13T21:00:14.718Z,64.20
2019-05-13T21:02:41.808Z,64.64
2019-05-13T21:05:08.333Z,64.91
2019-05-13T21:07:34.366Z,64.91
2019-05-13T21:10:01.415Z,65.09
2019-05-13T21:12:27.709Z,65.43
2019-05-13T21:14:53.910Z,65.32
2019-05-13T21:17:21.420Z,65.47
2019-05-13T21:19:47.653Z,65.36
2019-05-13T21:22:13.722Z,65.32
2019-05-13T21:24:41.254Z,65.99
2019-05-13T21:27:07.703Z,66.52
2019-05-13T21:29:33.674Z,66.80
2019-05-13T21:32:01.116Z,67.06
2019-05-13T21:34:27.334Z,67.44
2019-05-13T21:36:53.451Z,67.24
2019-05-13T21:39:21.450Z,67.20
2019-05-13T21:41:47.901Z,66.84
2019-05-13T21:44:13.905Z,67.58
2019-05-13T21:46:41.075Z,67.95
2019-05-13T21:49:07.485Z,68.09
2019-05-13T21:51:33.602Z,68.21
2019-05-13T21:54:01.230Z,68.15
2019-05-13T21:56:27.400Z,68.45
2019-05-13T21:58:53.613Z,68.53
2019-05-13T22:01:23.134Z,68.23
2019-05-13T22:03:51.395Z,68.15
2019-05-13T22:06:17.618Z,68.28
2019-05-13T22:08:43.826Z,68.21
2019-05-13T22:11:12.072Z,67.76
2019-05-13T22:13:38.393Z,68.59
2019-05-13T22:16:04.377Z,68.62
2019-05-13T22:18:31.338Z,69.10
2019-05-13T22:20:57.693Z,69.37
2019-05-13T22:23:23.721Z,65.64
2019-05-13T22:25:51.460Z,65.86
2019-05-13T22:28:17.800Z,66.45
2019-05-13T22:30:43.849Z,66.91
2019-05-13T22:33:12.163Z,67.73
2019-05-13T22:35:38.445Z,67.77
2019-05-13T22:38:04.563Z,67.87
2019-05-13T22:40:32.271Z,69.41
2019-05-13T22:42:58.425Z,69.97
2019-05-13T22:45:24.704Z,70.48
2019-05-13T22:47:52.081Z,70.22
2019-05-13T22:50:18.570Z,69.69
2019-05-13T22:52:44.560Z,69.51
2019-05-13T22:55:11.518Z,69.72
2019-05-13T22:57:37.829Z,69.34
2019-05-13T23:00:05.140Z,69.15
2019-05-13T23:02:33.375Z,69.05
2019-05-13T23:04:59.174Z,69.24
2019-05-13T23:07:25.368Z,69.31
2019-05-13T23:09:51.988Z,69.57
2019-05-13T23:12:18.164Z,69.71
2019-05-13T23:14:44.286Z,69.34
2019-05-13T23:17:12.489Z,69.86
2019-05-13T23:19:38.300Z,69.84
2019-05-13T23:22:04.425Z,69.72
2019-05-13T23:24:31.189Z,69.75
2019-05-13T23:26:57.517Z,69.97
2019-05-13T23:29:24.532Z,69.95
2019-05-13T23:31:52.011Z,70.05
2019-05-13T23:34:18.256Z,70.35
2019-05-13T23:36:44.375Z,70.75
2019-05-13T23:39:12.891Z,71.44
2019-05-13T23:41:41.426Z,71.33
2019-05-13T23:44:20.899Z,71.17
2019-05-13T23:46:35.061Z,71.40
2019-05-13T23:49:01.311Z,71.63
2019-05-13T23:51:27.531Z,71.54
2019-05-13T23:53:53.577Z,71.96
2019-05-13T23:56:21.656Z,72.05
2019-05-13T23:58:47.519Z,72.55
